Terminal Aerodrome Forecast
Issued by NWS

Home | Current Version | Previous Version | Text Only | Print | Product List | Glossary On
Versions: 1 2 3 4 5 6 7 8 9 10 11 12 13 14
000
FTUS46 KSTO 191100 RRA
TAFRDD
TAF
KRDD 191141Z 1912/2012 35009KT P6SM SKC
     FM191700 35011G20KT P6SM SKC
     FM192100 34006KT P6SM SKC=

USA.gov is the U.S. government's official web portal to all federal, state and local government web resources and services.